San Diego International Airport
KSAN : now visible

Airfield :











YOU CAN JOIN US ON...

 
LOGIN :

Register | Disclaimer

   EN    FR    IT 

 









Legend :    VFR   Marginal VFR   IFR   Intensive IFR   Very Intensive IFR
Visi :
Ceiling :
>= 8 km
>= 3000ft
5 to 8 km
1000 to 3000 ft
1500m to 5 km
500 to 1000 ft
800 to 1500m
200 to 500 ft
< 800m
< 200 ft
Symbols :   Thunderstorms  Fog  Heavy snow  Heavy precipitations  Wind > 20 kt






- Airport Elevation : 17 ft
- IATA code : SAN


KSAN - San Diego International

CURRENT METAR :
  • 191751Z VRB04KT 9SM BKN016 17/12 A3011 RMK AO2 SLP196 T01720122 10172 20156 51015

EXPIRED METARs :
  • 191651Z 31003KT 8SM OVC015 16/12 A3010 RMK AO2 SLP193 T01610122
  • 191618Z 00000KT 8SM OVC015 16/12 A3010 RMK AO2 T01610122
  • 191551Z 07004KT 8SM OVC014 16/12 A3008 RMK AO2 SLP186 T01610122

TAF KSAN
Valid from the 19 at 18:00 until the 21 at 00:00 UTC


191720Z 1918/2024 VRB03KT P6SM OVC015
FM191900 28007KT P6SM FEW015
FM200300 VRB03KT P6SM BKN009
TEMPO 2008/2012 SCT010
FM201200 VRB05KT P6SM FEW010



MET'MAP, your aeronautical weather chart ! - Copyright ORBIFLY December 2007 - Disclaimer

ORBIFLY MET'MAP TEAM :

Programming & Development : Alexandra Zaïnal
Concept & original design : Baudouin d'Aumeries
Assistance for programming : Marc-Olivier Méhu
Technical & hardware support : Manuel Goepfert

Contact : metmap@orbifly.com




SOURCES & CREDITS :

   NOAA       Earth
Advisory